Portada
METAR-TAF:

METAR-TAF

Aeroports :

Conakry, Guinea

latitud: 09-34N, longitud: 013-37W, altitud: 26 m

Observació

L'informe es va fer fa 46 minuts, a les 20:00 UTC
Vent calma
Temperatura 25°C
Humitat 94%
Pressió 1014 hPa
Visibilitat: 8000 m
Cel ennuvolat a una alçada de 1200 ft
Cel ennuvolat a una alçada de 10000 ft
pluja,

METAR: GUCY 182000Z 00000KT 8000 -RA BKN012 BKN100 25/24 Q1014 NOSIG

Hora: 20:46 (20:46 UTC)

Pronòstic

L'informe es va fer fa 3 hores i 46 minuts, a les 17:00 UTC
Pronòstic vàlid del 18 a les 18 UTC al 19 a les 24 UTC
Vent 8 kt del Oest
Visibilitat 10 km o més
Núvols disperses a una alçada de 1300 ft
Cel ennuvolat a una alçada de 11000 ft
Probabilitat 30% :
Temporalment
entre VR i B0 UTC
Visibilitat: 5000 m
Cel ennuvolat a una alçada de 1200 ft
Cel cobert a una alçada de 10000 ft
pluja,

TAF: GUCY 181700Z 1818/1924 26008KT 9999 SCT013 BKN110 PROB30 TEMPO VRB02KT 5000 -RA BKN012 OVC100

Observacions i pronòstics meteorològics de més de 4000 aeroports (METAR i TAF).

Les estacions disponibles són els punts grocs i vermells al mapa.

Posi el ratolí al punt desitjat per veure el nom de l'estació.

Feu clic per veure les observacions i els pronòstics meteorològics.

Per canviar el mapa: feu clic els botons verds amb una creu de color negre per apropar; al botó verd amb un guió per allunyar la imatge; o en les fletxes verdes per a mapes adjacents.


METAR-TAF: